sensor_id;sensor_type;location;lat;lon;timestamp;P1;durP1;ratioP1;P2;durP2;ratioP2
25111;SDS011;13092;51.996;4.458;2024-02-26T00:01:07;54.67;;;49.93;;
25111;SDS011;13092;51.996;4.458;2024-02-26T00:03:35;52.73;;;48.33;;
25111;SDS011;13092;51.996;4.458;2024-02-26T00:06:04;53.37;;;48.87;;
25111;SDS011;13092;51.996;4.458;2024-02-26T00:08:32;54.77;;;49.87;;
25111;SDS011;13092;51.996;4.458;2024-02-26T00:11:00;53.80;;;49.20;;
25111;SDS011;13092;51.996;4.458;2024-02-26T00:13:30;54.97;;;50.33;;
25111;SDS011;13092;51.996;4.458;2024-02-26T00:15:58;54.27;;;49.67;;
25111;SDS011;13092;51.996;4.458;2024-02-26T00:18:27;54.13;;;49.40;;
25111;SDS011;13092;51.996;4.458;2024-02-26T00:20:55;56.03;;;51.33;;
25111;SDS011;13092;51.996;4.458;2024-02-26T00:23:23;54.73;;;50.13;;
25111;SDS011;13092;51.996;4.458;2024-02-26T00:25:51;56.30;;;51.70;;
25111;SDS011;13092;51.996;4.458;2024-02-26T00:28:20;54.97;;;50.33;;
25111;SDS011;13092;51.996;4.458;2024-02-26T00:30:51;55.87;;;51.27;;
25111;SDS011;13092;51.996;4.458;2024-02-26T00:33:22;55.20;;;50.80;;
25111;SDS011;13092;51.996;4.458;2024-02-26T00:35:51;55.87;;;51.07;;
25111;SDS011;13092;51.996;4.458;2024-02-26T00:38:19;52.93;;;48.73;;
25111;SDS011;13092;51.996;4.458;2024-02-26T00:40:48;54.10;;;49.60;;
25111;SDS011;13092;51.996;4.458;2024-02-26T00:43:16;52.63;;;48.23;;
25111;SDS011;13092;51.996;4.458;2024-02-26T00:45:45;51.50;;;47.20;;
25111;SDS011;13092;51.996;4.458;2024-02-26T00:48:15;50.60;;;46.30;;
25111;SDS011;13092;51.996;4.458;2024-02-26T00:50:43;50.07;;;45.93;;
25111;SDS011;13092;51.996;4.458;2024-02-26T00:53:12;51.23;;;47.03;;
25111;SDS011;13092;51.996;4.458;2024-02-26T00:55:40;50.83;;;46.73;;
25111;SDS011;13092;51.996;4.458;2024-02-26T00:58:09;51.60;;;47.50;;
25111;SDS011;13092;51.996;4.458;2024-02-26T01:00:40;52.67;;;48.37;;
25111;SDS011;13092;51.996;4.458;2024-02-26T01:03:11;53.27;;;48.77;;
25111;SDS011;13092;51.996;4.458;2024-02-26T01:05:40;54.03;;;49.60;;
25111;SDS011;13092;51.996;4.458;2024-02-26T01:08:10;53.10;;;48.90;;
25111;SDS011;13092;51.996;4.458;2024-02-26T01:10:38;53.00;;;48.80;;
25111;SDS011;13092;51.996;4.458;2024-02-26T01:13:07;53.50;;;49.10;;
25111;SDS011;13092;51.996;4.458;2024-02-26T01:15:35;53.77;;;49.23;;
25111;SDS011;13092;51.996;4.458;2024-02-26T01:18:03;54.07;;;49.67;;
25111;SDS011;13092;51.996;4.458;2024-02-26T01:20:35;54.70;;;50.17;;
25111;SDS011;13092;51.996;4.458;2024-02-26T01:23:04;54.00;;;49.70;;
25111;SDS011;13092;51.996;4.458;2024-02-26T01:25:35;54.60;;;50.00;;
25111;SDS011;13092;51.996;4.458;2024-02-26T01:28:05;53.83;;;49.53;;
25111;SDS011;13092;51.996;4.458;2024-02-26T01:30:33;53.47;;;49.07;;
25111;SDS011;13092;51.996;4.458;2024-02-26T01:33:07;52.10;;;47.70;;
25111;SDS011;13092;51.996;4.458;2024-02-26T01:35:35;52.67;;;48.47;;
25111;SDS011;13092;51.996;4.458;2024-02-26T01:38:05;52.67;;;48.47;;
25111;SDS011;13092;51.996;4.458;2024-02-26T01:40:33;54.07;;;49.67;;
25111;SDS011;13092;51.996;4.458;2024-02-26T01:43:02;52.87;;;48.47;;
25111;SDS011;13092;51.996;4.458;2024-02-26T01:45:31;53.57;;;49.07;;
25111;SDS011;13092;51.996;4.458;2024-02-26T01:48:02;54.57;;;50.13;;
25111;SDS011;13092;51.996;4.458;2024-02-26T01:50:35;53.50;;;49.10;;
25111;SDS011;13092;51.996;4.458;2024-02-26T01:53:06;54.33;;;49.87;;
25111;SDS011;13092;51.996;4.458;2024-02-26T01:55:35;53.90;;;49.40;;
25111;SDS011;13092;51.996;4.458;2024-02-26T01:58:04;53.50;;;48.80;;
25111;SDS011;13092;51.996;4.458;2024-02-26T02:00:35;53.93;;;49.43;;
25111;SDS011;13092;51.996;4.458;2024-02-26T02:03:04;52.00;;;47.70;;
25111;SDS011;13092;51.996;4.458;2024-02-26T02:05:33;54.23;;;49.73;;
25111;SDS011;13092;51.996;4.458;2024-02-26T02:08:10;55.27;;;50.67;;
25111;SDS011;13092;51.996;4.458;2024-02-26T02:10:39;54.03;;;49.43;;
25111;SDS011;13092;51.996;4.458;2024-02-26T02:13:08;54.77;;;50.27;;
25111;SDS011;13092;51.996;4.458;2024-02-26T02:15:36;55.07;;;50.57;;
25111;SDS011;13092;51.996;4.458;2024-02-26T02:18:05;55.53;;;51.03;;
25111;SDS011;13092;51.996;4.458;2024-02-26T02:23:55;56.47;;;51.80;;
25111;SDS011;13092;51.996;4.458;2024-02-26T02:26:23;54.73;;;50.23;;
25111;SDS011;13092;51.996;4.458;2024-02-26T02:28:52;54.00;;;49.63;;
25111;SDS011;13092;51.996;4.458;2024-02-26T02:31:24;53.50;;;49.00;;
25111;SDS011;13092;51.996;4.458;2024-02-26T02:33:57;54.57;;;50.07;;
25111;SDS011;13092;51.996;4.458;2024-02-26T02:36:26;53.33;;;48.93;;
25111;SDS011;13092;51.996;4.458;2024-02-26T02:38:56;55.73;;;51.30;;
25111;SDS011;13092;51.996;4.458;2024-02-26T02:41:25;53.20;;;48.97;;
25111;SDS011;13092;51.996;4.458;2024-02-26T02:43:56;54.20;;;49.73;;
25111;SDS011;13092;51.996;4.458;2024-02-26T02:46:24;53.90;;;49.50;;
25111;SDS011;13092;51.996;4.458;2024-02-26T02:48:52;56.10;;;51.50;;
25111;SDS011;13092;51.996;4.458;2024-02-26T02:51:21;55.40;;;50.57;;
25111;SDS011;13092;51.996;4.458;2024-02-26T02:53:49;56.27;;;51.67;;
25111;SDS011;13092;51.996;4.458;2024-02-26T02:56:19;55.97;;;51.17;;
25111;SDS011;13092;51.996;4.458;2024-02-26T02:58:47;55.60;;;51.00;;
25111;SDS011;13092;51.996;4.458;2024-02-26T03:01:15;54.30;;;49.60;;
25111;SDS011;13092;51.996;4.458;2024-02-26T03:03:43;55.37;;;50.77;;
25111;SDS011;13092;51.996;4.458;2024-02-26T03:06:12;55.83;;;51.23;;
25111;SDS011;13092;51.996;4.458;2024-02-26T03:08:40;57.17;;;52.57;;
25111;SDS011;13092;51.996;4.458;2024-02-26T03:11:12;56.67;;;52.07;;
25111;SDS011;13092;51.996;4.458;2024-02-26T03:13:43;56.13;;;51.53;;
25111;SDS011;13092;51.996;4.458;2024-02-26T03:16:12;54.73;;;50.23;;
25111;SDS011;13092;51.996;4.458;2024-02-26T03:18:40;56.60;;;52.10;;
25111;SDS011;13092;51.996;4.458;2024-02-26T03:21:08;55.30;;;50.80;;
25111;SDS011;13092;51.996;4.458;2024-02-26T03:23:37;54.00;;;49.50;;
25111;SDS011;13092;51.996;4.458;2024-02-26T03:26:05;53.03;;;48.83;;
25111;SDS011;13092;51.996;4.458;2024-02-26T03:28:35;54.53;;;50.13;;
25111;SDS011;13092;51.996;4.458;2024-02-26T03:31:05;55.67;;;51.20;;
25111;SDS011;13092;51.996;4.458;2024-02-26T03:33:33;57.93;;;53.13;;
25111;SDS011;13092;51.996;4.458;2024-02-26T03:36:02;57.00;;;52.27;;
25111;SDS011;13092;51.996;4.458;2024-02-26T03:38:31;59.80;;;54.90;;
25111;SDS011;13092;51.996;4.458;2024-02-26T03:40:59;57.47;;;52.77;;
25111;SDS011;13092;51.996;4.458;2024-02-26T03:43:27;58.40;;;53.70;;
25111;SDS011;13092;51.996;4.458;2024-02-26T03:45:55;59.97;;;55.17;;
25111;SDS011;13092;51.996;4.458;2024-02-26T03:48:24;55.97;;;51.67;;
25111;SDS011;13092;51.996;4.458;2024-02-26T03:50:53;56.13;;;51.70;;
25111;SDS011;13092;51.996;4.458;2024-02-26T03:53:21;56.77;;;52.23;;
25111;SDS011;13092;51.996;4.458;2024-02-26T03:55:49;55.43;;;50.83;;
25111;SDS011;13092;51.996;4.458;2024-02-26T03:58:19;57.03;;;52.23;;
25111;SDS011;13092;51.996;4.458;2024-02-26T04:00:49;55.40;;;50.67;;
25111;SDS011;13092;51.996;4.458;2024-02-26T04:03:20;55.63;;;51.13;;
25111;SDS011;13092;51.996;4.458;2024-02-26T04:05:51;56.60;;;52.10;;
25111;SDS011;13092;51.996;4.458;2024-02-26T04:08:23;56.30;;;51.80;;
25111;SDS011;13092;51.996;4.458;2024-02-26T04:10:52;58.00;;;53.40;;
25111;SDS011;13092;51.996;4.458;2024-02-26T04:13:20;59.63;;;54.83;;
25111;SDS011;13092;51.996;4.458;2024-02-26T04:15:48;56.10;;;51.40;;
25111;SDS011;13092;51.996;4.458;2024-02-26T04:18:17;56.10;;;51.20;;
25111;SDS011;13092;51.996;4.458;2024-02-26T04:20:45;58.57;;;53.67;;
25111;SDS011;13092;51.996;4.458;2024-02-26T04:23:15;56.00;;;51.10;;
25111;SDS011;13092;51.996;4.458;2024-02-26T04:25:43;56.23;;;51.40;;
25111;SDS011;13092;51.996;4.458;2024-02-26T04:28:12;55.47;;;50.77;;
25111;SDS011;13092;51.996;4.458;2024-02-26T04:30:40;55.10;;;50.07;;
25111;SDS011;13092;51.996;4.458;2024-02-26T04:33:09;52.10;;;47.50;;
25111;SDS011;13092;51.996;4.458;2024-02-26T04:35:38;52.33;;;47.43;;
25111;SDS011;13092;51.996;4.458;2024-02-26T04:38:06;52.27;;;47.30;;
25111;SDS011;13092;51.996;4.458;2024-02-26T04:40:36;53.13;;;48.23;;
25111;SDS011;13092;51.996;4.458;2024-02-26T04:43:04;54.30;;;49.43;;
25111;SDS011;13092;51.996;4.458;2024-02-26T04:45:32;54.93;;;49.73;;
25111;SDS011;13092;51.996;4.458;2024-02-26T04:48:00;56.57;;;51.33;;
25111;SDS011;13092;51.996;4.458;2024-02-26T04:50:29;56.17;;;51.00;;
25111;SDS011;13092;51.996;4.458;2024-02-26T04:52:58;53.03;;;48.07;;
25111;SDS011;13092;51.996;4.458;2024-02-26T04:55:29;49.90;;;45.30;;
25111;SDS011;13092;51.996;4.458;2024-02-26T04:57:58;51.40;;;46.47;;
25111;SDS011;13092;51.996;4.458;2024-02-26T05:00:27;51.53;;;46.80;;
25111;SDS011;13092;51.996;4.458;2024-02-26T05:02:55;52.33;;;47.33;;
25111;SDS011;13092;51.996;4.458;2024-02-26T05:05:23;54.67;;;49.47;;
25111;SDS011;13092;51.996;4.458;2024-02-26T05:07:52;51.93;;;47.20;;
25111;SDS011;13092;51.996;4.458;2024-02-26T05:10:20;53.57;;;48.57;;
25111;SDS011;13092;51.996;4.458;2024-02-26T05:12:48;52.83;;;48.00;;
25111;SDS011;13092;51.996;4.458;2024-02-26T05:15:18;51.17;;;46.47;;
25111;SDS011;13092;51.996;4.458;2024-02-26T05:17:47;54.47;;;49.47;;
25111;SDS011;13092;51.996;4.458;2024-02-26T05:20:17;53.53;;;48.63;;
25111;SDS011;13092;51.996;4.458;2024-02-26T05:22:45;52.10;;;47.40;;
25111;SDS011;13092;51.996;4.458;2024-02-26T05:25:14;53.57;;;48.53;;
25111;SDS011;13092;51.996;4.458;2024-02-26T05:27:43;54.73;;;49.77;;
25111;SDS011;13092;51.996;4.458;2024-02-26T05:30:11;54.20;;;48.90;;
25111;SDS011;13092;51.996;4.458;2024-02-26T05:32:41;54.63;;;49.53;;
25111;SDS011;13092;51.996;4.458;2024-02-26T05:35:10;56.63;;;51.23;;
25111;SDS011;13092;51.996;4.458;2024-02-26T05:37:38;52.67;;;47.83;;
25111;SDS011;13092;51.996;4.458;2024-02-26T05:40:07;53.33;;;48.43;;
25111;SDS011;13092;51.996;4.458;2024-02-26T05:42:35;52.80;;;48.00;;
25111;SDS011;13092;51.996;4.458;2024-02-26T05:45:04;50.20;;;45.53;;
25111;SDS011;13092;51.996;4.458;2024-02-26T05:47:33;52.97;;;47.87;;
25111;SDS011;13092;51.996;4.458;2024-02-26T05:50:03;50.73;;;45.87;;
25111;SDS011;13092;51.996;4.458;2024-02-26T05:52:32;53.47;;;48.43;;
25111;SDS011;13092;51.996;4.458;2024-02-26T05:55:01;54.83;;;49.73;;
25111;SDS011;13092;51.996;4.458;2024-02-26T05:57:31;54.93;;;49.83;;
25111;SDS011;13092;51.996;4.458;2024-02-26T05:59:59;54.63;;;49.47;;
25111;SDS011;13092;51.996;4.458;2024-02-26T06:02:30;51.10;;;46.40;;
25111;SDS011;13092;51.996;4.458;2024-02-26T06:04:59;50.20;;;45.43;;
25111;SDS011;13092;51.996;4.458;2024-02-26T06:07:28;51.50;;;46.63;;
25111;SDS011;13092;51.996;4.458;2024-02-26T06:09:57;51.83;;;46.97;;
25111;SDS011;13092;51.996;4.458;2024-02-26T06:12:26;51.10;;;46.33;;
25111;SDS011;13092;51.996;4.458;2024-02-26T06:14:55;52.27;;;47.17;;
25111;SDS011;13092;51.996;4.458;2024-02-26T06:17:23;49.97;;;45.03;;
25111;SDS011;13092;51.996;4.458;2024-02-26T06:19:51;50.17;;;45.37;;
25111;SDS011;13092;51.996;4.458;2024-02-26T06:22:20;49.53;;;44.83;;
25111;SDS011;13092;51.996;4.458;2024-02-26T06:24:50;49.80;;;45.00;;
25111;SDS011;13092;51.996;4.458;2024-02-26T06:27:18;49.40;;;44.53;;
25111;SDS011;13092;51.996;4.458;2024-02-26T06:29:48;48.70;;;43.70;;
25111;SDS011;13092;51.996;4.458;2024-02-26T06:32:19;50.57;;;45.13;;
25111;SDS011;13092;51.996;4.458;2024-02-26T06:34:49;49.67;;;44.60;;
25111;SDS011;13092;51.996;4.458;2024-02-26T06:37:18;51.60;;;46.20;;
25111;SDS011;13092;51.996;4.458;2024-02-26T06:39:46;50.73;;;45.73;;
25111;SDS011;13092;51.996;4.458;2024-02-26T06:42:15;50.33;;;45.07;;
25111;SDS011;13092;51.996;4.458;2024-02-26T06:44:44;51.17;;;45.63;;
25111;SDS011;13092;51.996;4.458;2024-02-26T06:47:12;50.33;;;45.33;;
25111;SDS011;13092;51.996;4.458;2024-02-26T06:49:40;51.63;;;46.43;;
25111;SDS011;13092;51.996;4.458;2024-02-26T06:52:10;51.67;;;46.37;;
25111;SDS011;13092;51.996;4.458;2024-02-26T06:54:39;53.07;;;47.60;;
25111;SDS011;13092;51.996;4.458;2024-02-26T06:57:08;52.30;;;46.87;;
25111;SDS011;13092;51.996;4.458;2024-02-26T06:59:37;52.63;;;47.13;;
25111;SDS011;13092;51.996;4.458;2024-02-26T07:02:09;50.50;;;45.03;;
25111;SDS011;13092;51.996;4.458;2024-02-26T07:04:39;49.03;;;43.83;;
25111;SDS011;13092;51.996;4.458;2024-02-26T07:07:08;50.80;;;45.53;;
25111;SDS011;13092;51.996;4.458;2024-02-26T07:09:37;53.63;;;48.03;;
25111;SDS011;13092;51.996;4.458;2024-02-26T07:12:05;51.30;;;45.77;;
25111;SDS011;13092;51.996;4.458;2024-02-26T07:14:33;51.93;;;46.33;;
25111;SDS011;13092;51.996;4.458;2024-02-26T07:17:05;53.23;;;47.63;;
25111;SDS011;13092;51.996;4.458;2024-02-26T07:19:33;53.77;;;46.90;;
25111;SDS011;13092;51.996;4.458;2024-02-26T07:22:01;53.33;;;47.63;;
25111;SDS011;13092;51.996;4.458;2024-02-26T07:24:30;53.47;;;47.70;;
25111;SDS011;13092;51.996;4.458;2024-02-26T07:26:58;52.33;;;46.97;;
25111;SDS011;13092;51.996;4.458;2024-02-26T07:29:26;53.47;;;47.87;;
25111;SDS011;13092;51.996;4.458;2024-02-26T07:31:55;52.23;;;46.63;;
25111;SDS011;13092;51.996;4.458;2024-02-26T07:34:25;53.93;;;48.23;;
25111;SDS011;13092;51.996;4.458;2024-02-26T07:36:56;54.03;;;48.43;;
25111;SDS011;13092;51.996;4.458;2024-02-26T07:39:24;54.40;;;48.50;;
25111;SDS011;13092;51.996;4.458;2024-02-26T07:41:52;55.97;;;50.23;;
25111;SDS011;13092;51.996;4.458;2024-02-26T07:44:21;53.87;;;48.33;;
25111;SDS011;13092;51.996;4.458;2024-02-26T07:46:49;53.13;;;47.77;;
25111;SDS011;13092;51.996;4.458;2024-02-26T07:49:19;54.87;;;49.17;;
25111;SDS011;13092;51.996;4.458;2024-02-26T07:51:51;51.73;;;46.60;;
25111;SDS011;13092;51.996;4.458;2024-02-26T07:54:24;53.10;;;47.80;;
25111;SDS011;13092;51.996;4.458;2024-02-26T07:56:53;51.87;;;46.67;;
25111;SDS011;13092;51.996;4.458;2024-02-26T07:59:24;53.30;;;47.70;;
25111;SDS011;13092;51.996;4.458;2024-02-26T08:01:52;51.20;;;46.10;;
25111;SDS011;13092;51.996;4.458;2024-02-26T08:04:24;51.63;;;46.43;;
25111;SDS011;13092;51.996;4.458;2024-02-26T08:06:55;53.00;;;47.60;;
25111;SDS011;13092;51.996;4.458;2024-02-26T08:09:23;49.27;;;44.53;;
25111;SDS011;13092;51.996;4.458;2024-02-26T08:11:51;50.03;;;45.30;;
25111;SDS011;13092;51.996;4.458;2024-02-26T08:14:19;48.77;;;44.20;;
25111;SDS011;13092;51.996;4.458;2024-02-26T08:16:48;49.80;;;45.03;;
25111;SDS011;13092;51.996;4.458;2024-02-26T08:19:20;49.63;;;44.83;;
25111;SDS011;13092;51.996;4.458;2024-02-26T08:21:48;49.87;;;45.07;;
25111;SDS011;13092;51.996;4.458;2024-02-26T08:24:18;48.40;;;43.47;;
25111;SDS011;13092;51.996;4.458;2024-02-26T08:26:46;49.10;;;44.30;;
25111;SDS011;13092;51.996;4.458;2024-02-26T08:29:14;48.20;;;43.50;;
25111;SDS011;13092;51.996;4.458;2024-02-26T08:31:43;46.30;;;41.83;;
25111;SDS011;13092;51.996;4.458;2024-02-26T08:34:11;45.27;;;41.07;;
25111;SDS011;13092;51.996;4.458;2024-02-26T08:36:40;46.67;;;42.27;;
25111;SDS011;13092;51.996;4.458;2024-02-26T08:39:09;47.70;;;43.20;;
25111;SDS011;13092;51.996;4.458;2024-02-26T08:41:41;46.00;;;41.57;;
25111;SDS011;13092;51.996;4.458;2024-02-26T08:44:10;47.77;;;43.27;;
25111;SDS011;13092;51.996;4.458;2024-02-26T08:46:38;46.23;;;42.07;;
25111;SDS011;13092;51.996;4.458;2024-02-26T08:49:07;47.17;;;42.73;;
25111;SDS011;13092;51.996;4.458;2024-02-26T08:51:35;45.53;;;41.33;;
25111;SDS011;13092;51.996;4.458;2024-02-26T08:54:09;44.97;;;40.87;;
25111;SDS011;13092;51.996;4.458;2024-02-26T08:56:37;45.53;;;41.23;;
25111;SDS011;13092;51.996;4.458;2024-02-26T08:59:07;44.13;;;40.03;;
25111;SDS011;13092;51.996;4.458;2024-02-26T09:01:35;44.10;;;40.00;;
25111;SDS011;13092;51.996;4.458;2024-02-26T09:04:04;46.07;;;41.67;;
25111;SDS011;13092;51.996;4.458;2024-02-26T09:06:32;44.70;;;40.50;;
25111;SDS011;13092;51.996;4.458;2024-02-26T09:09:00;45.10;;;40.77;;
25111;SDS011;13092;51.996;4.458;2024-02-26T09:11:30;44.83;;;40.53;;
25111;SDS011;13092;51.996;4.458;2024-02-26T09:13:58;44.60;;;40.50;;
25111;SDS011;13092;51.996;4.458;2024-02-26T09:16:28;45.37;;;41.17;;
25111;SDS011;13092;51.996;4.458;2024-02-26T09:18:56;44.50;;;40.43;;
25111;SDS011;13092;51.996;4.458;2024-02-26T09:21:25;43.90;;;39.90;;
25111;SDS011;13092;51.996;4.458;2024-02-26T09:23:53;43.50;;;39.47;;
25111;SDS011;13092;51.996;4.458;2024-02-26T09:26:24;42.83;;;38.90;;
25111;SDS011;13092;51.996;4.458;2024-02-26T09:28:52;44.93;;;40.87;;
25111;SDS011;13092;51.996;4.458;2024-02-26T09:31:20;45.00;;;40.90;;
25111;SDS011;13092;51.996;4.458;2024-02-26T09:33:50;45.07;;;41.00;;
25111;SDS011;13092;51.996;4.458;2024-02-26T09:36:18;44.17;;;40.23;;
25111;SDS011;13092;51.996;4.458;2024-02-26T09:38:48;43.50;;;39.40;;
25111;SDS011;13092;51.996;4.458;2024-02-26T09:41:27;44.67;;;40.57;;
25111;SDS011;13092;51.996;4.458;2024-02-26T09:43:56;45.17;;;40.80;;
25111;SDS011;13092;51.996;4.458;2024-02-26T09:46:26;43.87;;;39.57;;
25111;SDS011;13092;51.996;4.458;2024-02-26T09:48:56;43.67;;;39.67;;
25111;SDS011;13092;51.996;4.458;2024-02-26T09:51:25;44.53;;;40.47;;
25111;SDS011;13092;51.996;4.458;2024-02-26T09:53:53;44.27;;;40.07;;
25111;SDS011;13092;51.996;4.458;2024-02-26T09:56:23;42.67;;;38.67;;
25111;SDS011;13092;51.996;4.458;2024-02-26T09:58:52;44.47;;;40.40;;
25111;SDS011;13092;51.996;4.458;2024-02-26T10:01:23;44.70;;;40.67;;
25111;SDS011;13092;51.996;4.458;2024-02-26T10:03:52;45.27;;;41.17;;
25111;SDS011;13092;51.996;4.458;2024-02-26T10:06:25;43.07;;;38.97;;
25111;SDS011;13092;51.996;4.458;2024-02-26T10:08:54;43.43;;;39.43;;
25111;SDS011;13092;51.996;4.458;2024-02-26T10:11:25;43.40;;;39.10;;
25111;SDS011;13092;51.996;4.458;2024-02-26T10:13:58;43.80;;;39.77;;
25111;SDS011;13092;51.996;4.458;2024-02-26T10:16:26;43.57;;;39.57;;
25111;SDS011;13092;51.996;4.458;2024-02-26T10:18:57;43.60;;;39.50;;
25111;SDS011;13092;51.996;4.458;2024-02-26T10:21:26;43.27;;;39.13;;
25111;SDS011;13092;51.996;4.458;2024-02-26T10:23:53;43.47;;;39.47;;
25111;SDS011;13092;51.996;4.458;2024-02-26T10:26:21;43.67;;;39.63;;
25111;SDS011;13092;51.996;4.458;2024-02-26T10:28:50;44.70;;;40.50;;
25111;SDS011;13092;51.996;4.458;2024-02-26T10:31:27;44.63;;;40.50;;
25111;SDS011;13092;51.996;4.458;2024-02-26T10:34:05;43.40;;;39.50;;
25111;SDS011;13092;51.996;4.458;2024-02-26T10:36:34;44.40;;;40.30;;
25111;SDS011;13092;51.996;4.458;2024-02-26T10:39:17;43.13;;;38.97;;
25111;SDS011;13092;51.996;4.458;2024-02-26T10:41:45;41.90;;;38.03;;
25111;SDS011;13092;51.996;4.458;2024-02-26T10:44:14;42.93;;;39.13;;
25111;SDS011;13092;51.996;4.458;2024-02-26T10:46:45;41.27;;;37.47;;
25111;SDS011;13092;51.996;4.458;2024-02-26T10:49:16;42.37;;;38.67;;
25111;SDS011;13092;51.996;4.458;2024-02-26T10:51:53;42.83;;;38.93;;
25111;SDS011;13092;51.996;4.458;2024-02-26T10:54:24;40.80;;;37.10;;
25111;SDS011;13092;51.996;4.458;2024-02-26T10:56:57;43.40;;;39.37;;
25111;SDS011;13092;51.996;4.458;2024-02-26T10:59:28;42.07;;;38.17;;
25111;SDS011;13092;51.996;4.458;2024-02-26T11:01:59;42.80;;;38.80;;
25111;SDS011;13092;51.996;4.458;2024-02-26T11:04:30;41.93;;;38.13;;
25111;SDS011;13092;51.996;4.458;2024-02-26T11:06:58;42.17;;;38.37;;
25111;SDS011;13092;51.996;4.458;2024-02-26T11:09:27;42.33;;;38.53;;
25111;SDS011;13092;51.996;4.458;2024-02-26T11:11:56;41.40;;;37.60;;
25111;SDS011;13092;51.996;4.458;2024-02-26T11:14:26;41.73;;;37.83;;
25111;SDS011;13092;51.996;4.458;2024-02-26T11:16:57;41.67;;;37.77;;
25111;SDS011;13092;51.996;4.458;2024-02-26T11:19:27;43.30;;;39.27;;
25111;SDS011;13092;51.996;4.458;2024-02-26T11:22:00;43.10;;;39.20;;
25111;SDS011;13092;51.996;4.458;2024-02-26T11:24:44;40.50;;;36.80;;
25111;SDS011;13092;51.996;4.458;2024-02-26T11:27:15;42.23;;;38.30;;
25111;SDS011;13092;51.996;4.458;2024-02-26T11:29:47;41.73;;;37.80;;
25111;SDS011;13092;51.996;4.458;2024-02-26T11:32:17;42.33;;;38.27;;
25111;SDS011;13092;51.996;4.458;2024-02-26T11:34:47;41.87;;;37.67;;
25111;SDS011;13092;51.996;4.458;2024-02-26T11:37:16;41.87;;;37.97;;
25111;SDS011;13092;51.996;4.458;2024-02-26T11:39:45;42.77;;;38.90;;
25111;SDS011;13092;51.996;4.458;2024-02-26T11:42:14;40.97;;;37.27;;
25111;SDS011;13092;51.996;4.458;2024-02-26T11:44:43;41.00;;;37.20;;
25111;SDS011;13092;51.996;4.458;2024-02-26T11:47:11;42.20;;;38.40;;
25111;SDS011;13092;51.996;4.458;2024-02-26T11:49:40;42.63;;;38.73;;
25111;SDS011;13092;51.996;4.458;2024-02-26T11:52:10;41.57;;;37.77;;
25111;SDS011;13092;51.996;4.458;2024-02-26T11:54:39;41.87;;;38.07;;
25111;SDS011;13092;51.996;4.458;2024-02-26T11:57:20;42.83;;;38.93;;
25111;SDS011;13092;51.996;4.458;2024-02-26T11:59:54;39.67;;;36.17;;
25111;SDS011;13092;51.996;4.458;2024-02-26T12:02:44;41.10;;;37.33;;
25111;SDS011;13092;51.996;4.458;2024-02-26T12:05:14;41.17;;;37.53;;
25111;SDS011;13092;51.996;4.458;2024-02-26T12:07:46;41.03;;;37.43;;
25111;SDS011;13092;51.996;4.458;2024-02-26T12:10:25;40.30;;;36.60;;
25111;SDS011;13092;51.996;4.458;2024-02-26T12:12:58;40.67;;;36.97;;
25111;SDS011;13092;51.996;4.458;2024-02-26T12:15:31;43.10;;;39.10;;
25111;SDS011;13092;51.996;4.458;2024-02-26T12:18:02;42.57;;;38.70;;
25111;SDS011;13092;51.996;4.458;2024-02-26T12:20:31;40.87;;;37.17;;
25111;SDS011;13092;51.996;4.458;2024-02-26T12:23:01;41.43;;;37.83;;
25111;SDS011;13092;51.996;4.458;2024-02-26T12:25:30;41.10;;;37.40;;
25111;SDS011;13092;51.996;4.458;2024-02-26T12:27:59;40.27;;;36.57;;
25111;SDS011;13092;51.996;4.458;2024-02-26T12:30:27;40.80;;;37.37;;
25111;SDS011;13092;51.996;4.458;2024-02-26T12:32:59;40.97;;;37.27;;
25111;SDS011;13092;51.996;4.458;2024-02-26T12:35:28;40.03;;;36.63;;
25111;SDS011;13092;51.996;4.458;2024-02-26T12:37:58;39.63;;;36.23;;
25111;SDS011;13092;51.996;4.458;2024-02-26T12:40:28;39.60;;;36.10;;
25111;SDS011;13092;51.996;4.458;2024-02-26T12:42:56;39.70;;;36.20;;
25111;SDS011;13092;51.996;4.458;2024-02-26T12:45:25;39.30;;;35.60;;
25111;SDS011;13092;51.996;4.458;2024-02-26T12:47:58;39.60;;;36.10;;
25111;SDS011;13092;51.996;4.458;2024-02-26T12:50:27;38.60;;;35.20;;
25111;SDS011;13092;51.996;4.458;2024-02-26T12:52:56;39.10;;;35.57;;
25111;SDS011;13092;51.996;4.458;2024-02-26T12:55:24;38.87;;;35.37;;
25111;SDS011;13092;51.996;4.458;2024-02-26T12:57:54;39.20;;;35.77;;
25111;SDS011;13092;51.996;4.458;2024-02-26T13:00:23;39.40;;;36.00;;
25111;SDS011;13092;51.996;4.458;2024-02-26T13:02:55;40.87;;;37.37;;
25111;SDS011;13092;51.996;4.458;2024-02-26T13:05:24;41.33;;;37.73;;
25111;SDS011;13092;51.996;4.458;2024-02-26T13:07:52;40.50;;;37.00;;
25111;SDS011;13092;51.996;4.458;2024-02-26T13:10:21;40.10;;;36.70;;
25111;SDS011;13092;51.996;4.458;2024-02-26T13:12:49;41.13;;;37.50;;
25111;SDS011;13092;51.996;4.458;2024-02-26T13:15:19;41.07;;;37.63;;
25111;SDS011;13092;51.996;4.458;2024-02-26T13:17:49;40.40;;;36.90;;
25111;SDS011;13092;51.996;4.458;2024-02-26T13:20:25;38.97;;;35.77;;
25111;SDS011;13092;51.996;4.458;2024-02-26T13:23:01;37.50;;;34.40;;
25111;SDS011;13092;51.996;4.458;2024-02-26T13:25:31;38.33;;;35.03;;
25111;SDS011;13092;51.996;4.458;2024-02-26T13:28:06;38.80;;;35.40;;
25111;SDS011;13092;51.996;4.458;2024-02-26T13:30:37;37.30;;;34.20;;
25111;SDS011;13092;51.996;4.458;2024-02-26T13:33:09;38.43;;;35.23;;
25111;SDS011;13092;51.996;4.458;2024-02-26T13:35:38;38.63;;;35.23;;
25111;SDS011;13092;51.996;4.458;2024-02-26T13:38:07;38.93;;;35.63;;
25111;SDS011;13092;51.996;4.458;2024-02-26T13:40:35;39.73;;;36.13;;
25111;SDS011;13092;51.996;4.458;2024-02-26T13:43:04;39.40;;;36.10;;
25111;SDS011;13092;51.996;4.458;2024-02-26T13:45:33;40.83;;;37.33;;
25111;SDS011;13092;51.996;4.458;2024-02-26T13:48:04;41.23;;;37.70;;
25111;SDS011;13092;51.996;4.458;2024-02-26T13:50:33;40.30;;;37.00;;
25111;SDS011;13092;51.996;4.458;2024-02-26T13:53:02;39.07;;;35.83;;
25111;SDS011;13092;51.996;4.458;2024-02-26T13:55:30;39.27;;;35.93;;
25111;SDS011;13092;51.996;4.458;2024-02-26T13:58:02;39.93;;;36.53;;
25111;SDS011;13092;51.996;4.458;2024-02-26T14:00:32;40.67;;;37.27;;
25111;SDS011;13092;51.996;4.458;2024-02-26T14:03:02;39.60;;;36.27;;
25111;SDS011;13092;51.996;4.458;2024-02-26T14:05:32;40.33;;;36.87;;
25111;SDS011;13092;51.996;4.458;2024-02-26T14:08:01;41.23;;;37.63;;
25111;SDS011;13092;51.996;4.458;2024-02-26T14:10:31;40.20;;;36.80;;
25111;SDS011;13092;51.996;4.458;2024-02-26T14:13:00;40.50;;;36.90;;
25111;SDS011;13092;51.996;4.458;2024-02-26T14:15:28;40.37;;;36.83;;
25111;SDS011;13092;51.996;4.458;2024-02-26T14:17:58;40.17;;;36.67;;
25111;SDS011;13092;51.996;4.458;2024-02-26T14:20:30;39.73;;;36.30;;
25111;SDS011;13092;51.996;4.458;2024-02-26T14:22:59;40.17;;;36.83;;
25111;SDS011;13092;51.996;4.458;2024-02-26T14:25:30;40.43;;;36.97;;
25111;SDS011;13092;51.996;4.458;2024-02-26T14:28:01;42.27;;;38.60;;
25111;SDS011;13092;51.996;4.458;2024-02-26T14:30:29;40.93;;;37.43;;
25111;SDS011;13092;51.996;4.458;2024-02-26T14:33:00;40.30;;;36.90;;
25111;SDS011;13092;51.996;4.458;2024-02-26T14:35:33;39.87;;;36.53;;
25111;SDS011;13092;51.996;4.458;2024-02-26T14:38:04;40.43;;;36.47;;